Decoded Metar for K1S5 ( in ) (IATA:) | Meteo·Mobile Aviation Weather
aviador You're here:

K1S5 Decoded Metar

in
Report Time2019-10-21 00:35:00
UTC Time2019-10-21 00:43:18
Flight Rules vfr VFR
Wind170° at 09 kt
Visibility9999 m
Phenomena:N/A
Clouds:Overcast 048 Hf
Expected CloudBase > 2,000 ft AGL from Temp-Dew spread
Ceiling4,800 ft
Temp11°C
Dew Point06°C (72% RH)
AAT6.9°C
QNH1015 hPa
Raw Report
K1S5 210035Z AUTO 17009KT 10SM OVC048 11/06 A2996 RMK AO2
T01120060=

Extra information for K1S5:More info

Social comments